Time;durP1;ratioP1;P1;durP2;ratioP2;P2;SDS_P1;SDS_P2;PMS_P1;PMS_P2;Temp;Humidity;BMP_temperature;BMP_pressure;BME280_temperature;BME280_humidity;BME280_pressure;Samples;Min_cycle;Max_cycle;Signal;HPM_P1;HPM_P2
2023/05/08 00:01:26;;;;;;;57.20;2.50;;;;;;;;;;5072106;28;20566;-70
2023/05/08 00:03:54;;;;;;;57.23;2.40;;;;;;;;;;5071981;28;20443;-70
2023/05/08 00:06:21;;;;;;;57.50;2.63;;;;;;;;;;5072590;28;20821;-69
2023/05/08 00:08:48;;;;;;;56.97;2.40;;;;;;;;;;5071476;28;20479;-69
2023/05/08 00:11:15;;;;;;;57.30;2.70;;;;;;;;;;5071857;28;20987;-70
2023/05/08 00:13:42;;;;;;;57.33;2.70;;;;;;;;;;5072211;28;20443;-70
2023/05/08 00:16:10;;;;;;;58.97;3.23;;;;;;;;;;5072049;28;20443;-69
2023/05/08 00:18:39;;;;;;;57.57;2.50;;;;;;;;;;5071686;28;20527;-70
2023/05/08 00:21:06;;;;;;;57.50;2.40;;;;;;;;;;5071701;28;20463;-70
2023/05/08 00:23:33;;;;;;;57.50;2.67;;;;;;;;;;5071706;28;20458;-69
2023/05/08 00:26:01;;;;;;;57.23;2.50;;;;;;;;;;5071959;28;20443;-70
2023/05/08 00:28:28;;;;;;;57.23;2.50;;;;;;;;;;5071770;28;20443;-69
2023/05/08 00:30:55;;;;;;;57.40;2.33;;;;;;;;;;5071634;28;20467;-70
2023/05/08 00:33:22;;;;;;;57.37;2.60;;;;;;;;;;5071824;28;20455;-70
2023/05/08 00:35:50;;;;;;;57.67;2.90;;;;;;;;;;5071625;28;20453;-69
2023/05/08 00:38:17;;;;;;;57.23;2.60;;;;;;;;;;5071762;28;20447;-70
2023/05/08 00:40:45;;;;;;;58.00;2.70;;;;;;;;;;5077618;28;20467;-69
2023/05/08 00:43:12;;;;;;;57.50;2.47;;;;;;;;;;5078496;28;20443;-69
2023/05/08 00:45:40;;;;;;;57.70;3.23;;;;;;;;;;5078297;28;20453;-70
2023/05/08 00:48:07;;;;;;;59.70;2.90;;;;;;;;;;5078226;28;20462;-69
2023/05/08 00:50:34;;;;;;;57.50;3.07;;;;;;;;;;5078121;28;20494;-70
2023/05/08 00:53:03;;;;;;;57.27;2.50;;;;;;;;;;5078194;28;20451;-70
2023/05/08 00:55:31;;;;;;;57.60;2.50;;;;;;;;;;5078413;28;20451;-69
2023/05/08 00:57:58;;;;;;;58.47;2.57;;;;;;;;;;5078298;28;20453;-70
2023/05/08 01:00:25;;;;;;;57.33;2.40;;;;;;;;;;5077848;28;20467;-69
2023/05/08 01:02:52;;;;;;;57.57;2.90;;;;;;;;;;5078119;28;20447;-69
2023/05/08 01:05:20;;;;;;;58.60;2.90;;;;;;;;;;5078420;28;20462;-69
2023/05/08 01:07:47;;;;;;;57.83;2.77;;;;;;;;;;5078121;28;20958;-70
2023/05/08 01:10:15;;;;;;;57.27;2.90;;;;;;;;;;5077762;28;20491;-70
2023/05/08 01:12:48;;;;;;;58.87;2.70;;;;;;;;;;5078208;28;20451;-69
2023/05/08 01:15:17;;;;;;;57.90;2.60;;;;;;;;;;5077907;28;20442;-70
2023/05/08 01:17:47;;;;;;;57.57;2.60;;;;;;;;;;5078199;28;20451;-70
2023/05/08 01:20:20;;;;;;;57.30;2.60;;;;;;;;;;5077705;28;20474;-69
2023/05/08 01:23:13;;;;;;;57.47;2.57;;;;;;;;;;5077670;28;20867;-70
2023/05/08 01:26:02;;;;;;;57.70;2.70;;;;;;;;;;5077844;28;20465;-70
2023/05/08 01:28:41;;;;;;;57.17;2.30;;;;;;;;;;5077566;28;20944;-69
2023/05/08 01:31:18;;;;;;;57.33;2.43;;;;;;;;;;5077999;28;20455;-70
2023/05/08 01:33:50;;;;;;;58.17;2.90;;;;;;;;;;5077941;28;20450;-69
2023/05/08 01:36:24;;;;;;;57.33;2.47;;;;;;;;;;5077408;28;20482;-69
2023/05/08 01:38:54;;;;;;;58.83;3.43;;;;;;;;;;5077657;28;20521;-69
2023/05/08 01:41:26;;;;;;;57.23;2.47;;;;;;;;;;5077892;28;20459;-69
2023/05/08 01:43:54;;;;;;;57.13;2.33;;;;;;;;;;5077814;28;20958;-70
2023/05/08 01:46:24;;;;;;;57.37;3.03;;;;;;;;;;5077815;28;20454;-70
2023/05/08 01:48:56;;;;;;;57.40;2.47;;;;;;;;;;5077648;28;20439;-70
2023/05/08 01:51:26;;;;;;;57.40;2.40;;;;;;;;;;5074660;28;20501;-69
2023/05/08 01:53:56;;;;;;;57.37;2.30;;;;;;;;;;5074528;28;20450;-70
2023/05/08 01:56:25;;;;;;;57.50;2.40;;;;;;;;;;5072782;28;20932;-69
2023/05/08 01:58:54;;;;;;;57.80;2.93;;;;;;;;;;5074080;28;20451;-70
2023/05/08 02:01:24;;;;;;;57.50;2.80;;;;;;;;;;5074452;28;20474;-70
2023/05/08 02:03:52;;;;;;;57.17;2.30;;;;;;;;;;5074553;28;20439;-69
2023/05/08 02:06:22;;;;;;;57.07;2.40;;;;;;;;;;5073964;28;20451;-69
2023/05/08 02:08:50;;;;;;;57.37;2.87;;;;;;;;;;5073014;28;20447;-70
2023/05/08 02:11:18;;;;;;;57.03;2.30;;;;;;;;;;5074085;28;20837;-69
2023/05/08 02:13:47;;;;;;;57.23;2.40;;;;;;;;;;5074206;28;20541;-70
2023/05/08 02:16:14;;;;;;;57.17;2.40;;;;;;;;;;5074253;28;20447;-70
2023/05/08 02:18:44;;;;;;;57.17;2.33;;;;;;;;;;5073809;28;20454;-70
2023/05/08 02:21:13;;;;;;;57.23;2.37;;;;;;;;;;5073710;28;20469;-70
2023/05/08 02:23:42;;;;;;;57.30;2.60;;;;;;;;;;5073660;28;20454;-69
2023/05/08 02:26:10;;;;;;;57.30;2.83;;;;;;;;;;5074165;28;20629;-70
2023/05/08 02:28:37;;;;;;;58.73;3.70;;;;;;;;;;5073706;28;20447;-69
2023/05/08 02:31:05;;;;;;;57.67;2.67;;;;;;;;;;5073646;28;20491;-69
2023/05/08 02:33:32;;;;;;;57.13;2.40;;;;;;;;;;5073677;28;20447;-69
2023/05/08 02:36:00;;;;;;;59.10;3.80;;;;;;;;;;5073977;28;20447;-69
2023/05/08 02:38:27;;;;;;;56.97;2.40;;;;;;;;;;5073778;28;20447;-70
2023/05/08 02:40:57;;;;;;;57.60;2.83;;;;;;;;;;5073862;28;20474;-69
2023/05/08 02:43:24;;;;;;;57.37;2.50;;;;;;;;;;5073711;28;20546;-70
2023/05/08 02:45:58;;;;;;;57.57;2.70;;;;;;;;;;5073603;28;20887;-69
2023/05/08 02:48:27;;;;;;;57.80;2.80;;;;;;;;;;5073353;28;20463;-70
2023/05/08 02:50:58;;;;;;;57.60;3.13;;;;;;;;;;5073178;28;21010;-70
2023/05/08 02:53:26;;;;;;;57.93;3.20;;;;;;;;;;5073300;28;20450;-70
2023/05/08 02:55:56;;;;;;;58.07;2.70;;;;;;;;;;5073492;28;20740;-69
2023/05/08 02:58:31;;;;;;;57.37;2.97;;;;;;;;;;5073330;28;20454;-69
2023/05/08 03:01:05;;;;;;;57.20;2.80;;;;;;;;;;5073443;28;20462;-70
2023/05/08 03:03:34;;;;;;;56.87;2.20;;;;;;;;;;5073252;28;20822;-69
2023/05/08 03:06:03;;;;;;;57.50;3.00;;;;;;;;;;5072999;28;20458;-70
2023/05/08 03:08:31;;;;;;;57.60;2.80;;;;;;;;;;5072777;28;20453;-70
2023/05/08 03:10:59;;;;;;;57.20;2.50;;;;;;;;;;5072823;28;20490;-69
2023/05/08 03:13:29;;;;;;;57.47;2.70;;;;;;;;;;5072999;28;20538;-70
2023/05/08 03:15:58;;;;;;;57.60;2.63;;;;;;;;;;5072941;28;20636;-70
2023/05/08 03:18:30;;;;;;;57.27;2.40;;;;;;;;;;5072892;28;20443;-69
2023/05/08 03:21:00;;;;;;;57.17;2.53;;;;;;;;;;5072758;28;20467;-70
2023/05/08 03:23:28;;;;;;;56.97;2.27;;;;;;;;;;5071660;28;20554;-69
2023/05/08 03:25:55;;;;;;;57.30;2.83;;;;;;;;;;5072253;28;20443;-70
2023/05/08 03:28:23;;;;;;;57.47;2.60;;;;;;;;;;5072723;28;20443;-69
2023/05/08 03:30:52;;;;;;;60.00;3.27;;;;;;;;;;5072432;28;20491;-70
2023/05/08 03:33:19;;;;;;;57.60;3.13;;;;;;;;;;5072554;28;20450;-70
2023/05/08 03:35:47;;;;;;;57.03;2.20;;;;;;;;;;5072540;28;20454;-70
2023/05/08 03:38:15;;;;;;;57.80;3.93;;;;;;;;;;5072006;28;20833;-70
2023/05/08 03:40:42;;;;;;;57.20;2.20;;;;;;;;;;5072287;28;20467;-69
2023/05/08 03:43:10;;;;;;;58.57;3.47;;;;;;;;;;5072326;28;20459;-70
2023/05/08 03:45:37;;;;;;;58.23;2.53;;;;;;;;;;5072394;28;20447;-70
2023/05/08 03:48:07;;;;;;;57.60;3.23;;;;;;;;;;5072239;28;20448;-69
2023/05/08 03:50:35;;;;;;;57.50;2.60;;;;;;;;;;5071835;28;20487;-69
2023/05/08 03:53:03;;;;;;;57.17;2.40;;;;;;;;;;5072189;28;20474;-70
2023/05/08 03:55:30;;;;;;;57.00;2.10;;;;;;;;;;5072251;28;20967;-70
2023/05/08 03:58:00;;;;;;;57.13;2.40;;;;;;;;;;5072130;28;21082;-69
2023/05/08 04:00:31;;;;;;;57.40;2.20;;;;;;;;;;5071752;28;21002;-69
2023/05/08 04:03:05;;;;;;;57.17;2.67;;;;;;;;;;5072272;28;20622;-69
2023/05/08 04:05:36;;;;;;;57.27;2.30;;;;;;;;;;5072338;28;20455;-69
2023/05/08 04:08:06;;;;;;;57.47;2.67;;;;;;;;;;5071710;28;20960;-69
2023/05/08 04:10:37;;;;;;;57.37;2.70;;;;;;;;;;5071567;28;20487;-69
2023/05/08 04:13:07;;;;;;;57.23;2.33;;;;;;;;;;5072171;28;20516;-69
2023/05/08 04:15:35;;;;;;;56.97;2.30;;;;;;;;;;5071366;28;20461;-70
2023/05/08 04:18:05;;;;;;;57.17;2.40;;;;;;;;;;5071718;28;20447;-69
2023/05/08 04:20:34;;;;;;;58.17;3.23;;;;;;;;;;5072073;28;20826;-69
2023/05/08 04:23:02;;;;;;;57.27;2.40;;;;;;;;;;5071473;28;20538;-69
2023/05/08 04:25:30;;;;;;;57.50;2.80;;;;;;;;;;5071836;28;20452;-69
2023/05/08 04:27:58;;;;;;;58.00;3.20;;;;;;;;;;5071838;28;20811;-69
2023/05/08 04:30:25;;;;;;;57.33;2.80;;;;;;;;;;5071315;28;20574;-69
2023/05/08 04:32:53;;;;;;;57.17;2.40;;;;;;;;;;5071651;28;20534;-69
2023/05/08 04:35:20;;;;;;;57.07;2.30;;;;;;;;;;5071932;28;20443;-69
2023/05/08 04:37:48;;;;;;;58.00;3.97;;;;;;;;;;5071334;28;20452;-69
2023/05/08 04:40:16;;;;;;;57.40;2.50;;;;;;;;;;5070717;28;20843;-69
2023/05/08 04:42:45;;;;;;;57.27;2.40;;;;;;;;;;5071626;28;20457;-69
2023/05/08 04:45:13;;;;;;;57.37;2.47;;;;;;;;;;5071922;28;20458;-69
2023/05/08 04:47:40;;;;;;;57.37;2.40;;;;;;;;;;5071728;28;20455;-69
2023/05/08 04:50:08;;;;;;;57.17;2.43;;;;;;;;;;5071152;28;21033;-69
2023/05/08 04:52:35;;;;;;;60.87;2.97;;;;;;;;;;5071314;28;20486;-69
2023/05/08 04:55:03;;;;;;;56.93;2.40;;;;;;;;;;5071584;28;20451;-69
2023/05/08 04:57:30;;;;;;;59.27;3.07;;;;;;;;;;5071572;28;20452;-69
2023/05/08 04:59:57;;;;;;;57.27;2.80;;;;;;;;;;5071120;28;20464;-69
2023/05/08 05:02:26;;;;;;;56.97;2.27;;;;;;;;;;5071645;28;20448;-70
2023/05/08 05:04:53;;;;;;;57.50;2.83;;;;;;;;;;5071454;28;20443;-69
2023/05/08 05:07:20;;;;;;;57.93;3.40;;;;;;;;;;5071256;28;20451;-69
2023/05/08 05:09:47;;;;;;;57.30;2.40;;;;;;;;;;5070865;28;20467;-69
2023/05/08 05:12:16;;;;;;;58.40;4.93;;;;;;;;;;5071620;28;20821;-69
2023/05/08 05:14:43;;;;;;;57.17;2.23;;;;;;;;;;5071554;28;20459;-69
2023/05/08 05:17:10;;;;;;;59.70;3.63;;;;;;;;;;5071254;28;20455;-69
2023/05/08 05:19:37;;;;;;;58.60;2.83;;;;;;;;;;5071030;28;20795;-70
2023/05/08 05:22:05;;;;;;;58.47;3.33;;;;;;;;;;5071059;28;20444;-69
2023/05/08 05:24:32;;;;;;;57.30;3.07;;;;;;;;;;5071025;28;20481;-69
2023/05/08 05:26:59;;;;;;;57.30;2.43;;;;;;;;;;5073383;28;20459;-70
2023/05/08 05:29:27;;;;;;;57.40;3.60;;;;;;;;;;5074444;28;20451;-69
2023/05/08 05:31:54;;;;;;;57.23;2.40;;;;;;;;;;5074905;28;21060;-69
2023/05/08 05:34:22;;;;;;;57.37;2.50;;;;;;;;;;5074977;28;20459;-69
2023/05/08 05:36:49;;;;;;;57.10;2.40;;;;;;;;;;5074497;28;20451;-70
2023/05/08 05:39:16;;;;;;;57.17;2.40;;;;;;;;;;5074606;28;20455;-69
2023/05/08 05:41:43;;;;;;;57.10;2.40;;;;;;;;;;5074673;28;20467;-69
2023/05/08 05:44:10;;;;;;;57.07;2.30;;;;;;;;;;5074845;28;20443;-70
2023/05/08 05:46:39;;;;;;;56.87;2.30;;;;;;;;;;5074700;28;20451;-69
2023/05/08 05:49:06;;;;;;;57.87;3.20;;;;;;;;;;5074308;28;20450;-69
2023/05/08 05:51:33;;;;;;;57.10;2.37;;;;;;;;;;5074145;28;20526;-69
2023/05/08 05:54:00;;;;;;;57.30;2.40;;;;;;;;;;5074221;28;20450;-70
2023/05/08 05:56:28;;;;;;;57.43;3.00;;;;;;;;;;5074352;28;20451;-69
2023/05/08 05:58:55;;;;;;;57.00;2.50;;;;;;;;;;5074058;28;20447;-69
2023/05/08 06:01:23;;;;;;;57.57;3.37;;;;;;;;;;5074342;28;20472;-69
2023/05/08 06:03:51;;;;;;;57.97;2.60;;;;;;;;;;5074281;28;21024;-70
2023/05/08 06:06:18;;;;;;;57.80;2.97;;;;;;;;;;5074232;28;20458;-69
2023/05/08 06:08:47;;;;;;;57.00;2.77;;;;;;;;;;5074000;28;20455;-70
2023/05/08 06:11:14;;;;;;;57.10;2.53;;;;;;;;;;5074059;28;20536;-69
2023/05/08 06:13:42;;;;;;;57.23;2.60;;;;;;;;;;5074242;28;20801;-69
2023/05/08 06:16:09;;;;;;;57.10;2.30;;;;;;;;;;5074494;28;20474;-70
2023/05/08 06:18:36;;;;;;;57.00;2.53;;;;;;;;;;5073667;28;20489;-69
2023/05/08 06:21:05;;;;;;;57.20;2.50;;;;;;;;;;5074134;28;20463;-69
2023/05/08 06:23:32;;;;;;;57.20;2.70;;;;;;;;;;5073702;28;20443;-69
2023/05/08 06:25:59;;;;;;;57.77;2.90;;;;;;;;;;5073822;28;21112;-69
2023/05/08 06:28:27;;;;;;;58.60;3.73;;;;;;;;;;5073670;28;20867;-69
2023/05/08 06:30:54;;;;;;;56.80;2.27;;;;;;;;;;5073612;28;20501;-70
2023/05/08 06:33:22;;;;;;;57.30;2.67;;;;;;;;;;5073613;28;20973;-70
2023/05/08 06:35:49;;;;;;;56.90;2.40;;;;;;;;;;5073736;28;20454;-70
2023/05/08 06:38:17;;;;;;;58.33;2.77;;;;;;;;;;5072901;28;20459;-70
2023/05/08 06:40:45;;;;;;;57.50;2.70;;;;;;;;;;5073437;28;20505;-69
2023/05/08 06:43:12;;;;;;;57.20;2.40;;;;;;;;;;5073112;28;20883;-69
2023/05/08 06:45:39;;;;;;;57.07;2.37;;;;;;;;;;5073502;28;20831;-70
2023/05/08 06:48:06;;;;;;;57.27;2.70;;;;;;;;;;5073659;28;20443;-70
2023/05/08 06:50:34;;;;;;;57.20;2.60;;;;;;;;;;5073332;28;20887;-70
2023/05/08 06:53:01;;;;;;;57.87;2.50;;;;;;;;;;5073609;28;20466;-69
2023/05/08 06:55:29;;;;;;;59.30;3.43;;;;;;;;;;5073449;28;20456;-70
2023/05/08 06:57:56;;;;;;;57.20;2.50;;;;;;;;;;5073219;28;20447;-69
2023/05/08 07:00:23;;;;;;;56.93;2.40;;;;;;;;;;5072924;28;20469;-70
2023/05/08 07:02:51;;;;;;;56.87;2.50;;;;;;;;;;5073474;28;20457;-70
2023/05/08 07:05:18;;;;;;;56.97;2.77;;;;;;;;;;5073399;28;20819;-70
2023/05/08 07:07:45;;;;;;;57.20;2.60;;;;;;;;;;5073247;28;20474;-70
2023/05/08 07:10:13;;;;;;;57.17;2.57;;;;;;;;;;5072717;28;20983;-69
2023/05/08 07:12:41;;;;;;;57.17;2.40;;;;;;;;;;5072896;28;20566;-70
2023/05/08 07:15:09;;;;;;;57.10;2.30;;;;;;;;;;5072944;28;20849;-70
2023/05/08 07:17:37;;;;;;;57.00;2.47;;;;;;;;;;5073118;28;20455;-70
2023/05/08 07:20:04;;;;;;;57.07;2.70;;;;;;;;;;5072695;28;20463;-70
2023/05/08 07:22:32;;;;;;;57.10;2.70;;;;;;;;;;5073006;28;20787;-69
2023/05/08 07:24:59;;;;;;;57.07;2.30;;;;;;;;;;5072747;28;20465;-69
2023/05/08 07:27:26;;;;;;;57.17;2.70;;;;;;;;;;5072760;28;20455;-69
2023/05/08 07:29:56;;;;;;;57.90;3.90;;;;;;;;;;5072213;28;20549;-69
2023/05/08 07:32:23;;;;;;;56.97;2.30;;;;;;;;;;5072487;28;20915;-70
2023/05/08 07:34:50;;;;;;;57.00;2.27;;;;;;;;;;5072481;28;20443;-70
2023/05/08 07:37:17;;;;;;;56.87;2.40;;;;;;;;;;5072165;28;20463;-69
2023/05/08 07:39:46;;;;;;;57.07;2.23;;;;;;;;;;5072057;28;20478;-70
2023/05/08 07:42:13;;;;;;;57.70;3.03;;;;;;;;;;5072457;28;20447;-70
2023/05/08 07:44:41;;;;;;;57.37;2.50;;;;;;;;;;5072615;28;20444;-70
2023/05/08 07:47:10;;;;;;;56.93;2.10;;;;;;;;;;5072496;28;20455;-69
2023/05/08 07:49:37;;;;;;;57.27;2.73;;;;;;;;;;5071132;28;20538;-70
2023/05/08 07:52:04;;;;;;;57.27;2.40;;;;;;;;;;5072310;28;20566;-69
2023/05/08 07:54:31;;;;;;;57.20;2.50;;;;;;;;;;5072259;28;20530;-70
2023/05/08 07:56:58;;;;;;;57.27;2.60;;;;;;;;;;5072428;28;20447;-70
2023/05/08 07:59:25;;;;;;;57.43;3.07;;;;;;;;;;5072006;28;20478;-70
2023/05/08 08:01:53;;;;;;;56.87;2.23;;;;;;;;;;5072264;28;20439;-70
2023/05/08 08:04:21;;;;;;;57.10;2.47;;;;;;;;;;5072075;28;20454;-70
2023/05/08 08:06:48;;;;;;;56.87;2.53;;;;;;;;;;5071955;28;20453;-69
2023/05/08 08:09:15;;;;;;;57.87;2.50;;;;;;;;;;5071778;28;20823;-70
2023/05/08 08:11:42;;;;;;;58.90;4.00;;;;;;;;;;5071997;28;20479;-69
2023/05/08 08:14:09;;;;;;;59.83;5.40;;;;;;;;;;5071954;28;20455;-70
2023/05/08 08:16:36;;;;;;;56.87;2.13;;;;;;;;;;5072038;28;20923;-70
2023/05/08 08:19:04;;;;;;;56.90;2.10;;;;;;;;;;5071212;28;20451;-70
2023/05/08 08:21:32;;;;;;;57.50;2.50;;;;;;;;;;5071653;28;20471;-70
2023/05/08 08:23:59;;;;;;;57.90;2.83;;;;;;;;;;5071683;28;20948;-70
2023/05/08 08:26:26;;;;;;;57.50;2.90;;;;;;;;;;5071847;28;20451;-70
2023/05/08 08:28:53;;;;;;;56.90;2.37;;;;;;;;;;5071464;28;20447;-70
2023/05/08 08:31:21;;;;;;;57.27;2.63;;;;;;;;;;5071404;28;21033;-70
2023/05/08 08:33:48;;;;;;;57.60;2.93;;;;;;;;;;5071863;28;20443;-70
2023/05/08 08:36:15;;;;;;;57.80;2.63;;;;;;;;;;5071607;28;20462;-70
2023/05/08 08:38:44;;;;;;;57.00;2.30;;;;;;;;;;5071624;28;20477;-70
2023/05/08 08:41:14;;;;;;;57.10;2.67;;;;;;;;;;5071755;28;20486;-70
2023/05/08 08:43:42;;;;;;;57.40;2.70;;;;;;;;;;5071805;28;20443;-70
2023/05/08 08:46:11;;;;;;;57.40;2.53;;;;;;;;;;5071733;28;20839;-70
2023/05/08 08:48:42;;;;;;;56.87;2.10;;;;;;;;;;5071281;28;20959;-70
2023/05/08 08:51:12;;;;;;;60.27;3.10;;;;;;;;;;5071809;28;20835;-70
2023/05/08 08:53:43;;;;;;;58.17;2.83;;;;;;;;;;5071757;28;20459;-70
2023/05/08 08:56:12;;;;;;;57.17;2.70;;;;;;;;;;5071634;28;20454;-70
2023/05/08 08:58:42;;;;;;;57.03;2.73;;;;;;;;;;5071332;28;20832;-69
2023/05/08 09:01:10;;;;;;;57.07;2.30;;;;;;;;;;5073876;28;20584;-70
2023/05/08 09:03:37;;;;;;;57.87;3.00;;;;;;;;;;5075750;28;20451;-70
2023/05/08 09:06:04;;;;;;;57.03;2.70;;;;;;;;;;5075461;28;21135;-70
2023/05/08 09:08:32;;;;;;;57.43;2.83;;;;;;;;;;5075332;28;20451;-69
2023/05/08 09:11:02;;;;;;;58.07;2.60;;;;;;;;;;5075353;28;20889;-70
2023/05/08 09:13:30;;;;;;;57.10;2.57;;;;;;;;;;5075631;28;20475;-69
2023/05/08 09:15:58;;;;;;;57.57;2.70;;;;;;;;;;5075264;28;20808;-70
2023/05/08 09:18:25;;;;;;;57.17;2.80;;;;;;;;;;5075345;28;20445;-70
2023/05/08 09:20:52;;;;;;;57.30;3.47;;;;;;;;;;5074847;28;20549;-70
2023/05/08 09:23:19;;;;;;;57.07;2.40;;;;;;;;;;5075258;28;20441;-70
2023/05/08 09:25:47;;;;;;;57.50;2.47;;;;;;;;;;5075152;28;20454;-69
2023/05/08 09:28:18;;;;;;;57.40;2.53;;;;;;;;;;5074896;28;20451;-69
2023/05/08 09:30:56;;;;;;;57.27;2.43;;;;;;;;;;5074949;28;20464;-69
2023/05/08 09:33:24;;;;;;;56.77;2.10;;;;;;;;;;5074993;28;20478;-69
2023/05/08 09:35:51;;;;;;;57.07;2.30;;;;;;;;;;5075019;28;20451;-69
2023/05/08 09:38:35;;;;;;;58.10;3.83;;;;;;;;;;5074790;28;20443;-69
2023/05/08 09:41:08;;;;;;;57.90;2.77;;;;;;;;;;5074959;28;20554;-69
2023/05/08 09:43:35;;;;;;;57.10;2.30;;;;;;;;;;5074929;28;20439;-69
2023/05/08 09:46:21;;;;;;;57.30;2.83;;;;;;;;;;5074846;28;20447;-69
2023/05/08 09:48:50;;;;;;;56.67;2.10;;;;;;;;;;5074459;28;20450;-69
2023/05/08 09:51:17;;;;;;;57.40;2.60;;;;;;;;;;5074345;28;20459;-69
2023/05/08 09:53:44;;;;;;;57.77;2.80;;;;;;;;;;5074759;28;20508;-69
2023/05/08 09:56:12;;;;;;;56.87;2.23;;;;;;;;;;5074802;28;20966;-70
2023/05/08 09:58:39;;;;;;;57.03;2.33;;;;;;;;;;5074290;28;20465;-70
2023/05/08 10:01:06;;;;;;;57.83;2.67;;;;;;;;;;5074368;28;20463;-70
2023/05/08 10:03:49;;;;;;;57.10;2.33;;;;;;;;;;5074292;28;20444;-69
2023/05/08 10:06:17;;;;;;;57.73;2.10;;;;;;;;;;5074352;28;20951;-69
2023/05/08 10:08:45;;;;;;;59.73;4.80;;;;;;;;;;5074131;28;20451;-70
2023/05/08 10:11:16;;;;;;;57.00;2.47;;;;;;;;;;5074008;28;20890;-69
2023/05/08 10:13:43;;;;;;;56.87;2.20;;;;;;;;;;5073743;28;20487;-69
2023/05/08 10:16:13;;;;;;;56.67;2.33;;;;;;;;;;5074185;28;20454;-70
2023/05/08 10:18:41;;;;;;;56.77;2.10;;;;;;;;;;5074047;28;20479;-70
2023/05/08 10:21:09;;;;;;;56.97;2.20;;;;;;;;;;5074184;28;20475;-70
2023/05/08 10:23:38;;;;;;;58.97;2.50;;;;;;;;;;5074147;28;20550;-70
2023/05/08 10:26:08;;;;;;;57.07;2.20;;;;;;;;;;5074201;28;20443;-70
2023/05/08 10:28:38;;;;;;;57.10;2.37;;;;;;;;;;5073789;28;20465;-70
2023/05/08 10:31:08;;;;;;;57.97;3.07;;;;;;;;;;5074331;28;20489;-70
2023/05/08 10:33:35;;;;;;;57.20;2.00;;;;;;;;;;5074145;28;20579;-67
2023/05/08 10:36:03;;;;;;;56.73;2.10;;;;;;;;;;5073750;28;20961;-70
2023/05/08 10:38:31;;;;;;;57.00;2.27;;;;;;;;;;5073670;28;20451;-69
2023/05/08 10:41:02;;;;;;;57.60;2.30;;;;;;;;;;5074016;28;20477;-70
2023/05/08 10:43:29;;;;;;;57.10;2.50;;;;;;;;;;5073734;28;20454;-70
2023/05/08 10:45:57;;;;;;;57.07;2.03;;;;;;;;;;5073801;28;20455;-69
2023/05/08 10:48:27;;;;;;;57.20;2.27;;;;;;;;;;5073518;28;20964;-70
2023/05/08 10:50:59;;;;;;;57.03;2.70;;;;;;;;;;5073418;28;20468;-69
2023/05/08 10:53:32;;;;;;;57.80;2.57;;;;;;;;;;5073829;28;20995;-69
2023/05/08 10:55:59;;;;;;;58.37;2.53;;;;;;;;;;5073481;28;20538;-69
2023/05/08 10:58:31;;;;;;;58.60;3.50;;;;;;;;;;5073201;28;20454;-70
2023/05/08 11:01:12;;;;;;;56.73;1.90;;;;;;;;;;5073381;28;20549;-70
2023/05/08 11:03:41;;;;;;;57.20;2.10;;;;;;;;;;5073307;28;20523;-69
2023/05/08 11:06:08;;;;;;;57.30;2.30;;;;;;;;;;5073140;28;20454;-69
2023/05/08 11:08:43;;;;;;;57.57;2.97;;;;;;;;;;5073039;28;20539;-69
2023/05/08 11:11:14;;;;;;;56.83;2.20;;;;;;;;;;5073446;28;20467;-69
2023/05/08 11:13:45;;;;;;;58.67;4.37;;;;;;;;;;5073120;28;20483;-69
2023/05/08 11:16:12;;;;;;;57.20;1.87;;;;;;;;;;5072813;28;20458;-69
2023/05/08 11:18:59;;;;;;;57.77;3.30;;;;;;;;;;5072527;28;20536;-69
2023/05/08 11:21:28;;;;;;;58.00;3.07;;;;;;;;;;5072781;28;20840;-69
2023/05/08 11:23:57;;;;;;;57.37;2.90;;;;;;;;;;5072709;28;20459;-69
2023/05/08 11:26:38;;;;;;;57.10;2.10;;;;;;;;;;5072882;28;20497;-69
2023/05/08 11:29:16;;;;;;;57.10;2.30;;;;;;;;;;5072386;28;20805;-69
2023/05/08 11:31:52;;;;;;;57.10;2.73;;;;;;;;;;5072820;28;20473;-69
2023/05/08 11:34:38;;;;;;;57.03;2.10;;;;;;;;;;5072806;28;20836;-69
2023/05/08 11:37:09;;;;;;;60.47;3.43;;;;;;;;;;5072620;28;20446;-70
2023/05/08 11:39:36;;;;;;;56.97;2.30;;;;;;;;;;5072125;28;20463;-69
2023/05/08 11:42:22;;;;;;;56.97;2.30;;;;;;;;;;5072526;28;20451;-69
2023/05/08 11:44:49;;;;;;;56.83;2.13;;;;;;;;;;5072464;28;20814;-67
2023/05/08 11:47:19;;;;;;;56.77;2.30;;;;;;;;;;5072511;28;20874;-67
2023/05/08 11:49:46;;;;;;;58.10;2.70;;;;;;;;;;5071881;28;20482;-67
2023/05/08 11:52:19;;;;;;;56.97;2.50;;;;;;;;;;5072440;28;20443;-69
2023/05/08 11:54:46;;;;;;;57.20;2.43;;;;;;;;;;5072530;28;20823;-69
2023/05/08 11:57:17;;;;;;;57.20;2.27;;;;;;;;;;5072281;28;20447;-69
2023/05/08 11:59:45;;;;;;;57.17;2.47;;;;;;;;;;5072163;28;20470;-70
2023/05/08 12:02:12;;;;;;;57.43;2.97;;;;;;;;;;5072123;28;20556;-70
2023/05/08 12:04:46;;;;;;;57.33;2.73;;;;;;;;;;5072367;28;20458;-70
2023/05/08 12:07:15;;;;;;;58.77;3.80;;;;;;;;;;5072272;28;20451;-68
2023/05/08 12:09:42;;;;;;;56.83;2.43;;;;;;;;;;5071771;28;20533;-68
2023/05/08 12:12:10;;;;;;;57.30;2.63;;;;;;;;;;5072095;28;20443;-68
2023/05/08 12:14:37;;;;;;;57.37;2.90;;;;;;;;;;5072058;28;20469;-68
2023/05/08 12:17:04;;;;;;;57.97;2.90;;;;;;;;;;5071906;28;20451;-68
2023/05/08 12:19:31;;;;;;;57.57;2.90;;;;;;;;;;5071530;28;20947;-69
2023/05/08 12:21:58;;;;;;;56.93;2.30;;;;;;;;;;5072103;28;20450;-69
2023/05/08 12:24:27;;;;;;;57.70;2.53;;;;;;;;;;5071895;28;20513;-68
2023/05/08 12:26:55;;;;;;;57.70;3.27;;;;;;;;;;5071903;28;20444;-68
2023/05/08 12:29:22;;;;;;;57.10;2.70;;;;;;;;;;5071327;28;20447;-68
2023/05/08 12:31:49;;;;;;;57.10;2.87;;;;;;;;;;5071980;28;20459;-68
2023/05/08 12:34:16;;;;;;;57.80;3.10;;;;;;;;;;5071733;28;20579;-69
2023/05/08 12:36:43;;;;;;;56.70;2.50;;;;;;;;;;5071481;28;20455;-68
2023/05/08 12:39:12;;;;;;;57.27;3.00;;;;;;;;;;5071517;28;20454;-69
2023/05/08 12:41:46;;;;;;;57.47;2.80;;;;;;;;;;5071656;28;20474;-68
2023/05/08 12:44:20;;;;;;;58.40;2.97;;;;;;;;;;5071619;28;20443;-68
2023/05/08 12:46:47;;;;;;;57.10;2.53;;;;;;;;;;5071830;28;20469;-68
2023/05/08 12:49:14;;;;;;;56.87;2.20;;;;;;;;;;5071461;28;20452;-70
2023/05/08 12:51:46;;;;;;;57.30;2.00;;;;;;;;;;5071469;28;21019;-68
2023/05/08 12:54:13;;;;;;;58.30;3.77;;;;;;;;;;5071507;28;20479;-68
2023/05/08 12:56:44;;;;;;;57.30;2.50;;;;;;;;;;5070458;28;20508;-68
2023/05/08 12:59:11;;;;;;;59.50;2.70;;;;;;;;;;5071149;28;20998;-68
2023/05/08 13:01:39;;;;;;;58.77;3.30;;;;;;;;;;5071475;28;20542;-70
2023/05/08 13:04:07;;;;;;;57.40;2.90;;;;;;;;;;5071557;28;20534;-70
2023/05/08 13:06:34;;;;;;;57.50;2.70;;;;;;;;;;5071400;28;20447;-70
2023/05/08 13:09:01;;;;;;;57.50;2.73;;;;;;;;;;5070917;28;20447;-70
2023/05/08 13:11:30;;;;;;;57.07;2.20;;;;;;;;;;5071249;28;20476;-70
2023/05/08 13:13:58;;;;;;;59.73;3.57;;;;;;;;;;5071332;28;20995;-70
2023/05/08 13:16:25;;;;;;;58.90;2.77;;;;;;;;;;5071486;28;20448;-69
2023/05/08 13:18:53;;;;;;;58.00;2.63;;;;;;;;;;5070951;28;20448;-70
2023/05/08 13:21:20;;;;;;;57.40;2.50;;;;;;;;;;5071230;28;20475;-70
2023/05/08 13:23:47;;;;;;;57.50;2.50;;;;;;;;;;5071104;28;20459;-70
2023/05/08 13:26:14;;;;;;;58.00;2.90;;;;;;;;;;5071213;28;20940;-70
2023/05/08 13:28:41;;;;;;;58.03;3.40;;;;;;;;;;5070918;28;20450;-70
2023/05/08 13:31:09;;;;;;;58.67;3.73;;;;;;;;;;5071283;28;20463;-70
2023/05/08 13:33:37;;;;;;;56.97;2.33;;;;;;;;;;5070982;28;20483;-70
2023/05/08 13:36:04;;;;;;;57.17;2.20;;;;;;;;;;5071056;28;20870;-70
2023/05/08 13:38:31;;;;;;;57.37;2.40;;;;;;;;;;5071164;28;20447;-70
2023/05/08 13:40:58;;;;;;;57.67;3.20;;;;;;;;;;5071293;28;20474;-70
2023/05/08 13:43:25;;;;;;;57.77;3.43;;;;;;;;;;5071424;28;20450;-70
2023/05/08 13:45:53;;;;;;;57.33;2.30;;;;;;;;;;5071216;28;20453;-70
2023/05/08 13:48:21;;;;;;;57.57;3.20;;;;;;;;;;5073546;28;20454;-70
2023/05/08 13:50:49;;;;;;;58.00;3.77;;;;;;;;;;5074712;28;21014;-70
2023/05/08 13:53:16;;;;;;;61.10;3.30;;;;;;;;;;5074671;28;20522;-70
2023/05/08 13:55:43;;;;;;;57.40;2.63;;;;;;;;;;5074719;28;20477;-70
2023/05/08 13:58:10;;;;;;;56.93;2.30;;;;;;;;;;5074440;28;20447;-69
2023/05/08 14:00:37;;;;;;;58.67;2.33;;;;;;;;;;5074245;28;20463;-70
2023/05/08 14:03:04;;;;;;;57.30;2.63;;;;;;;;;;5074397;28;20447;-70
2023/05/08 14:05:33;;;;;;;56.97;2.27;;;;;;;;;;5074297;28;20951;-70
2023/05/08 14:08:00;;;;;;;57.70;2.80;;;;;;;;;;5074498;28;20451;-70
2023/05/08 14:10:27;;;;;;;57.40;2.47;;;;;;;;;;5073985;28;20983;-70
2023/05/08 14:12:54;;;;;;;57.60;2.87;;;;;;;;;;5074328;28;20443;-70
2023/05/08 14:15:21;;;;;;;57.40;2.40;;;;;;;;;;5074287;28;20505;-70
2023/05/08 14:17:48;;;;;;;57.17;2.13;;;;;;;;;;5074011;28;20451;-70
2023/05/08 14:20:16;;;;;;;57.37;2.60;;;;;;;;;;5073985;28;20546;-70
2023/05/08 14:22:44;;;;;;;57.90;2.90;;;;;;;;;;5074316;28;20530;-70
2023/05/08 14:25:12;;;;;;;56.87;2.40;;;;;;;;;;5074070;28;20520;-70
2023/05/08 14:27:39;;;;;;;57.10;2.03;;;;;;;;;;5074030;28;20448;-70
2023/05/08 14:30:07;;;;;;;57.50;2.93;;;;;;;;;;5073548;28;20975;-70
2023/05/08 14:32:34;;;;;;;57.63;2.67;;;;;;;;;;5073797;28;20535;-70
2023/05/08 14:35:01;;;;;;;57.03;2.43;;;;;;;;;;5074147;28;20482;-70
2023/05/08 14:37:28;;;;;;;57.40;2.37;;;;;;;;;;5073841;28;20915;-70
2023/05/08 14:39:58;;;;;;;57.57;2.90;;;;;;;;;;5073651;28;20467;-70